Aeroporto :
LOGIN :

Iscrizione | Disclaimer

   EN    FR    IT 

 










Sommario :    VFR   VFR Marginale   IFR   IFR Intensivo   IFR Molto Intensivo
Visibilità : 
Base nubi : 
>= 8 km
>= 3000ft
5 / 8 km
1000 / 3000 ft
1500m / 5 km
500 / 1000 ft
800 / 1500m
200 / 500 ft
< 800m
< 200 ft
Simboli :   Temporali  Nebbia  Neve Forte  Precipitazioni Forti  Vento > 20 kt
SIGMETs :   Varie  Temporali  Ghiacco  Turbolenza  Onda orograficha  Ceneri Vulcaniche






- Altitudine del aeroporto : 247 ft
- Codice IATA : BLL


EKBI - Billund

ULTIMO METAR :
  • 201620Z AUTO 03006KT 9999 -SHRA SCT051/// OVC071/// 05/03 Q1018

METARs OBSOLETI :
  • 201550Z AUTO 02004KT 9999 -SHRA OVC055/// 06/03 Q1018
  • 201520Z AUTO 04005KT 9999 -RA BKN055/// OVC100/// 06/04 Q1019
  • 201450Z AUTO 03004KT 9999 OVC061/// 06/04 Q1018
  • 201420Z AUTO 02003KT 9999 OVC064/// 06/04 Q1019
  • 201350Z AUTO 03004KT 9999 -SHRA OVC070/// 07/04 Q1019

TAF TAF EKBI
Valido dal 20 a 12 ore il 21 a 12 ore UTC


201102Z 2012/2112 12005KT 9999 BKN040
BECMG 2019/2021 2000 -RADZ BR BKN004
TEMPO 2021/2102 6000 RADZ SCT004 BKN010
TEMPO 2102/2108 1200 BKN001
BECMG 2108/2110 8000 NSW BKN020



MetMap, La meteo Aeronautica in un colpo d'occhio ! - Copyright ORBIFLY Dicembre 2007 - Disclaimer

ORBIFLY MET'MAP TEAM :

Programmazione e sviluppo : Alexandra Zaïnal
Concezione e sviluppo : Baudouin d'Aumeries
Co-Programmazione e sviluppo : Marc-Olivier Méhu
Supporto tecnico e logistico : Manuel Goepfert
Aiuto per la traduzione : Arnaldo La Scala

Contatto : metmap@orbifly.com




FONTI E CREDITI :

   NOAA